createdAt,value
2019-05-22T00:00:22.109Z,15.00
2019-05-22T00:04:25.212Z,14.70
2019-05-22T00:08:26.960Z,15.30
2019-05-22T00:12:28.200Z,14.80
2019-05-22T00:16:30.993Z,14.90
2019-05-22T00:20:32.963Z,14.90
2019-05-22T00:24:34.753Z,14.60
2019-05-22T00:28:37.959Z,15.30
2019-05-22T00:32:39.074Z,14.70
2019-05-22T00:36:40.167Z,14.20
2019-05-22T00:40:51.881Z,14.50
2019-05-22T00:44:53.679Z,15.40
2019-05-22T00:48:54.839Z,15.60
2019-05-22T00:53:06.759Z,14.60
2019-05-22T00:57:12.305Z,15.20
2019-05-22T01:01:21.192Z,14.90
2019-05-22T01:05:22.667Z,14.60
2019-05-22T01:09:25.542Z,14.40
2019-05-22T01:13:32.410Z,15.20
2019-05-22T01:17:36.197Z,15.00
2019-05-22T01:21:39.106Z,15.00
2019-05-22T01:25:42.368Z,15.70
2019-05-22T01:29:45.357Z,14.70
2019-05-22T01:33:51.446Z,14.30
2019-05-22T01:37:54.253Z,14.80
2019-05-22T01:41:56.443Z,14.30
2019-05-22T01:46:01.960Z,14.60
2019-05-22T01:50:06.158Z,15.30
2019-05-22T01:54:08.199Z,15.10
2019-05-22T01:58:11.892Z,15.00
2019-05-22T02:02:13.873Z,15.10
2019-05-22T02:06:17.343Z,14.20
2019-05-22T02:10:37.408Z,14.50
2019-05-22T02:14:43.960Z,14.60
2019-05-22T02:18:47.440Z,14.60
2019-05-22T02:22:49.342Z,15.10
2019-05-22T02:26:50.423Z,14.80
2019-05-22T02:30:53.420Z,15.10
2019-05-22T02:34:56.073Z,14.80
2019-05-22T02:38:57.078Z,15.50
2019-05-22T02:42:58.141Z,14.90
2019-05-22T02:47:16.985Z,14.80
2019-05-22T02:51:04.030Z,14.00
2019-05-22T02:55:06.319Z,15.20
2019-05-22T02:59:08.230Z,15.00
2019-05-22T03:03:09.386Z,15.20
2019-05-22T03:07:11.054Z,14.70
2019-05-22T03:11:14.302Z,14.60
2019-05-22T03:15:15.767Z,15.30
2019-05-22T03:19:40.526Z,14.90
2019-05-22T03:23:41.510Z,14.50
2019-05-22T03:27:49.569Z,14.70
2019-05-22T03:31:50.801Z,14.30
2019-05-22T03:35:55.515Z,14.20
2019-05-22T03:39:56.700Z,14.00
2019-05-22T03:43:57.781Z,15.10
2019-05-22T03:48:02.877Z,14.60
2019-05-22T03:52:05.766Z,15.00
2019-05-22T03:56:07.543Z,14.50
2019-05-22T04:00:13.346Z,14.60
2019-05-22T04:04:19.416Z,14.50
2019-05-22T04:08:20.702Z,14.20
2019-05-22T04:12:21.839Z,14.80
2019-05-22T04:16:26.994Z,14.70
2019-05-22T04:20:28.167Z,15.00
2019-05-22T04:24:30.447Z,14.70
2019-05-22T04:28:34.159Z,14.80
2019-05-22T04:32:36.759Z,14.80
2019-05-22T04:36:39.633Z,14.70
2019-05-22T04:40:46.120Z,14.80
2019-05-22T04:45:13.776Z,14.30
2019-05-22T04:49:15.529Z,14.50
2019-05-22T04:53:16.507Z,15.20
2019-05-22T04:57:17.498Z,15.10
2019-05-22T05:01:19.566Z,14.30
2019-05-22T05:05:24.205Z,14.50
2019-05-22T05:09:25.315Z,14.50
2019-05-22T05:13:26.174Z,14.70
2019-05-22T05:17:27.557Z,15.40
2019-05-22T05:21:28.666Z,15.10
2019-05-22T05:25:29.826Z,15.10
2019-05-22T05:29:31.720Z,15.10
2019-05-22T05:33:37.318Z,15.60
2019-05-22T05:37:40.109Z,14.70
2019-05-22T05:41:41.085Z,15.30
2019-05-22T05:45:44.202Z,15.70
2019-05-22T05:49:45.315Z,15.30
2019-05-22T05:53:56.362Z,15.40
2019-05-22T05:58:17.872Z,15.40
2019-05-22T06:02:19.827Z,15.80
2019-05-22T06:06:26.442Z,15.30
2019-05-22T06:10:37.397Z,15.50
2019-05-22T06:14:40.691Z,15.80
2019-05-22T06:18:42.006Z,15.30
2019-05-22T06:22:46.689Z,15.00
2019-05-22T06:26:55.182Z,15.80
2019-05-22T06:31:00.665Z,16.10
2019-05-22T06:35:02.763Z,14.60
2019-05-22T06:39:07.378Z,14.60
2019-05-22T06:43:24.968Z,15.50
2019-05-22T06:47:27.034Z,14.50
2019-05-22T06:51:28.005Z,14.80
2019-05-22T06:55:28.862Z,15.10
2019-05-22T06:59:29.850Z,14.60
2019-05-22T07:03:31.312Z,14.80
2019-05-22T07:07:32.988Z,15.30
2019-05-22T07:11:34.864Z,16.00
2019-05-22T07:15:38.351Z,16.70
2019-05-22T07:19:39.923Z,15.70
2019-05-22T07:23:41.403Z,15.90
2019-05-22T07:27:42.948Z,16.00
2019-05-22T07:31:45.100Z,15.40
2019-05-22T07:36:07.596Z,15.80
2019-05-22T07:39:49.373Z,15.80
2019-05-22T07:43:50.450Z,15.00
2019-05-22T07:47:52.065Z,15.60
2019-05-22T07:52:00.561Z,15.30
2019-05-22T07:55:57.705Z,16.70
2019-05-22T07:59:59.350Z,16.80
2019-05-22T08:04:01.567Z,16.00
2019-05-22T08:08:03.544Z,15.50
2019-05-22T08:12:08.190Z,15.40
2019-05-22T08:16:09.968Z,16.50
2019-05-22T08:20:12.105Z,16.90
2019-05-22T08:24:13.079Z,15.30
2019-05-22T08:28:14.177Z,15.90
2019-05-22T08:32:15.560Z,16.10
2019-05-22T08:36:16.665Z,14.70
2019-05-22T08:40:19.540Z,15.80
2019-05-22T08:44:20.814Z,15.40
2019-05-22T08:48:23.079Z,15.50
2019-05-22T08:52:24.775Z,16.20
2019-05-22T08:56:29.930Z,15.10
2019-05-22T09:00:31.208Z,14.60
2019-05-22T09:04:32.271Z,15.90
2019-05-22T09:08:34.160Z,16.00
2019-05-22T09:12:35.560Z,15.40
2019-05-22T09:16:36.836Z,14.40
2019-05-22T09:20:48.642Z,14.90
2019-05-22T09:24:42.742Z,15.10
2019-05-22T09:28:44.046Z,15.50
2019-05-22T09:32:47.521Z,16.40
2019-05-22T09:36:47.953Z,17.00
2019-05-22T09:40:49.517Z,17.20
2019-05-22T09:44:50.496Z,16.60
2019-05-22T09:48:51.646Z,16.90
2019-05-22T09:52:57.584Z,18.40
2019-05-22T09:56:55.873Z,18.10
2019-05-22T10:00:56.935Z,17.60
2019-05-22T10:04:58.211Z,16.40
2019-05-22T10:08:59.483Z,16.60
2019-05-22T10:13:01.043Z,16.70
2019-05-22T10:17:02.386Z,17.10
2019-05-22T10:21:04.016Z,18.30
2019-05-22T10:25:15.474Z,18.20
2019-05-22T10:29:08.836Z,17.80
2019-05-22T10:33:09.920Z,18.00
2019-05-22T10:37:12.674Z,17.30
2019-05-22T10:41:15.187Z,17.00
2019-05-22T10:45:16.397Z,17.20
2019-05-22T10:49:17.714Z,17.50
2019-05-22T10:53:32.455Z,17.10
2019-05-22T10:57:21.793Z,17.30
2019-05-22T11:01:22.973Z,17.00
2019-05-22T11:05:24.359Z,16.50
2019-05-22T11:09:25.959Z,16.20
2019-05-22T11:13:27.169Z,16.30
2019-05-22T11:17:28.972Z,16.30
2019-05-22T11:21:31.348Z,17.70
2019-05-22T11:25:33.084Z,17.30
2019-05-22T11:29:34.607Z,17.80
2019-05-22T11:33:35.574Z,18.40
2019-05-22T11:37:36.499Z,19.20
2019-05-22T11:41:37.927Z,18.30
2019-05-22T11:45:39.515Z,18.40
2019-05-22T11:49:40.652Z,18.80
2019-05-22T11:53:42.249Z,18.50
2019-05-22T11:57:44.480Z,19.60
2019-05-22T12:01:45.991Z,17.20
2019-05-22T12:05:47.202Z,18.50
2019-05-22T12:09:48.442Z,19.70
2019-05-22T12:13:50.744Z,20.50
2019-05-22T12:17:52.360Z,20.10
2019-05-22T12:21:53.564Z,20.60
2019-05-22T12:25:54.813Z,21.80
2019-05-22T12:29:56.712Z,21.20
2019-05-22T12:33:59.099Z,20.10
2019-05-22T12:38:00.856Z,21.40
2019-05-22T12:42:02.633Z,20.10
2019-05-22T12:46:03.706Z,20.60
2019-05-22T12:50:06.223Z,21.70
2019-05-22T12:54:07.219Z,20.40
2019-05-22T12:58:09.114Z,19.90
2019-05-22T13:02:10.347Z,20.60
2019-05-22T13:06:11.419Z,20.10
2019-05-22T13:10:13.933Z,21.80
2019-05-22T13:14:14.938Z,22.80
2019-05-22T13:18:18.228Z,23.30
2019-05-22T13:22:23.592Z,21.60
2019-05-22T13:26:25.124Z,19.30
2019-05-22T13:30:28.783Z,18.70
2019-05-22T13:34:30.043Z,19.20
2019-05-22T13:38:31.555Z,20.70
2019-05-22T13:42:32.625Z,20.90
2019-05-22T13:46:34.500Z,21.50
2019-05-22T13:50:36.133Z,20.80
2019-05-22T13:54:38.831Z,20.50
2019-05-22T13:58:40.650Z,21.60
2019-05-22T14:02:41.721Z,21.30
2019-05-22T14:06:42.643Z,22.70
2019-05-22T14:10:44.249Z,22.00
2019-05-22T14:14:45.353Z,20.90
2019-05-22T14:18:46.408Z,21.80
2019-05-22T14:22:47.560Z,23.40
2019-05-22T14:26:49.431Z,22.90
2019-05-22T14:30:51.099Z,22.90
2019-05-22T14:34:52.151Z,23.90
2019-05-22T14:38:54.635Z,23.80
2019-05-22T14:42:55.647Z,23.90
2019-05-22T14:47:11.854Z,25.00
2019-05-22T14:51:00.058Z,25.80
2019-05-22T14:55:01.313Z,25.90
2019-05-22T14:59:04.120Z,22.80
2019-05-22T15:03:05.870Z,23.90
2019-05-22T15:07:10.137Z,22.00
2019-05-22T15:11:11.271Z,23.40
2019-05-22T15:15:12.931Z,22.90
2019-05-22T15:19:14.018Z,23.00
2019-05-22T15:23:15.522Z,23.10
2019-05-22T15:27:20.003Z,23.20
2019-05-22T15:31:23.217Z,23.00
2019-05-22T15:35:24.768Z,23.10
2019-05-22T15:39:28.271Z,23.80
2019-05-22T15:43:29.606Z,24.00
2019-05-22T15:47:42.222Z,23.80
2019-05-22T15:51:36.412Z,22.40
2019-05-22T15:55:39.525Z,22.50
2019-05-22T15:59:42.752Z,23.30
2019-05-22T16:03:46.163Z,22.70
2019-05-22T16:07:48.765Z,21.50
2019-05-22T16:11:52.065Z,21.50
2019-05-22T16:15:57.560Z,19.70
2019-05-22T16:19:59.252Z,20.80
2019-05-22T16:24:00.557Z,21.70
2019-05-22T16:28:03.491Z,21.80
2019-05-22T16:32:07.340Z,21.90
2019-05-22T16:36:09.670Z,22.50
2019-05-22T16:40:11.466Z,23.00
2019-05-22T16:44:12.998Z,21.40
2019-05-22T16:48:27.828Z,21.10
2019-05-22T16:52:18.151Z,21.10
2019-05-22T16:56:21.089Z,22.10
2019-05-22T17:00:22.621Z,21.20
2019-05-22T17:04:24.327Z,21.30
2019-05-22T17:08:26.965Z,21.60
2019-05-22T17:12:28.207Z,22.70
2019-05-22T17:16:30.181Z,21.60
2019-05-22T17:20:33.581Z,21.20
2019-05-22T17:24:35.709Z,19.80
2019-05-22T17:28:37.443Z,20.20
2019-05-22T17:32:38.947Z,20.60
2019-05-22T17:36:40.938Z,21.40
2019-05-22T17:40:42.083Z,20.90
2019-05-22T17:44:46.494Z,20.40
2019-05-22T17:48:48.586Z,20.80
2019-05-22T17:52:49.911Z,21.00
2019-05-22T17:56:51.071Z,20.00
2019-05-22T18:00:53.593Z,19.80
2019-05-22T18:04:54.756Z,19.90
2019-05-22T18:08:55.767Z,20.30
2019-05-22T18:12:57.079Z,20.90
2019-05-22T18:16:58.267Z,20.90
2019-05-22T18:20:59.172Z,20.90
2019-05-22T18:25:00.664Z,21.00
2019-05-22T18:29:01.782Z,21.20
2019-05-22T18:33:03.130Z,21.20
2019-05-22T18:37:04.251Z,21.00
2019-05-22T18:41:05.370Z,20.40
2019-05-22T18:45:07.135Z,20.70
2019-05-22T18:49:08.140Z,20.50
2019-05-22T18:53:09.275Z,20.40
2019-05-22T18:57:10.175Z,20.10
2019-05-22T19:01:11.549Z,19.60
2019-05-22T19:05:15.954Z,19.80
2019-05-22T19:09:17.151Z,19.80
2019-05-22T19:13:18.230Z,19.80
2019-05-22T19:17:19.992Z,19.70
2019-05-22T19:21:20.974Z,19.50
2019-05-22T19:25:22.045Z,19.40
2019-05-22T19:29:23.411Z,19.10
2019-05-22T19:33:24.544Z,18.90
2019-05-22T19:37:25.530Z,18.80
2019-05-22T19:41:26.916Z,18.60
2019-05-22T19:45:30.900Z,18.40
2019-05-22T19:49:31.495Z,18.10
2019-05-22T19:53:33.129Z,18.00
2019-05-22T19:57:34.381Z,18.00
2019-05-22T20:01:37.179Z,17.90
2019-05-22T20:05:39.239Z,17.80
2019-05-22T20:09:41.143Z,17.70
2019-05-22T20:13:42.560Z,17.50
2019-05-22T20:17:44.436Z,17.40
2019-05-22T20:21:46.734Z,17.20
2019-05-22T20:25:48.658Z,17.00
2019-05-22T20:29:50.263Z,17.00
2019-05-22T20:33:51.959Z,16.90
2019-05-22T20:37:53.338Z,16.80
2019-05-22T20:41:54.354Z,16.60
2019-05-22T20:45:57.446Z,16.30
2019-05-22T20:49:59.231Z,16.40
2019-05-22T20:54:02.141Z,16.40
2019-05-22T20:58:05.211Z,16.40
2019-05-22T21:02:08.506Z,16.40
2019-05-22T21:06:12.100Z,16.10
2019-05-22T21:10:13.288Z,16.10
2019-05-22T21:14:14.842Z,16.00
2019-05-22T21:18:18.449Z,15.90
2019-05-22T21:22:20.560Z,15.70
2019-05-22T21:26:22.372Z,15.50
2019-05-22T21:30:25.452Z,15.50
2019-05-22T21:34:26.652Z,15.10
2019-05-22T21:38:28.672Z,14.60
2019-05-22T21:42:30.415Z,14.90
2019-05-22T21:46:32.236Z,15.00
2019-05-22T21:50:33.294Z,15.00
2019-05-22T21:54:35.486Z,15.00
2019-05-22T21:58:37.163Z,14.80
2019-05-22T22:02:41.958Z,14.90
2019-05-22T22:06:43.297Z,14.90
2019-05-22T22:10:44.954Z,14.90
2019-05-22T22:14:47.937Z,14.80
2019-05-22T22:18:49.341Z,14.80
2019-05-22T22:22:51.318Z,14.70
2019-05-22T22:26:52.614Z,14.60
2019-05-22T22:30:56.666Z,14.50
2019-05-22T22:34:58.331Z,14.50
2019-05-22T22:38:59.542Z,14.50
2019-05-22T22:43:02.926Z,14.30
2019-05-22T22:47:06.266Z,14.20
2019-05-22T22:51:09.181Z,14.20
2019-05-22T22:55:12.428Z,14.20
2019-05-22T22:59:13.496Z,13.90
2019-05-22T23:03:22.668Z,14.00
2019-05-22T23:07:26.176Z,13.80
2019-05-22T23:11:27.868Z,13.90
2019-05-22T23:15:29.333Z,13.80
2019-05-22T23:19:37.897Z,13.90
2019-05-22T23:23:40.159Z,13.80
2019-05-22T23:27:42.127Z,13.90
2019-05-22T23:31:43.613Z,13.80
2019-05-22T23:35:45.413Z,13.70
2019-05-22T23:39:47.092Z,13.60
2019-05-22T23:43:48.159Z,13.50
2019-05-22T23:48:03.142Z,13.60
2019-05-22T23:52:06.152Z,13.40
2019-05-22T23:56:08.253Z,13.40
